createdAt,value
2022-10-20T00:00:35.240Z,78.80
2022-10-20T00:03:04.333Z,78.84
2022-10-20T00:05:33.593Z,79.19
2022-10-20T00:08:03.075Z,78.65
2022-10-20T00:10:32.918Z,79.22
2022-10-20T00:13:02.022Z,79.03
2022-10-20T00:15:31.165Z,78.32
2022-10-20T00:18:00.163Z,78.53
2022-10-20T00:20:29.005Z,78.36
2022-10-20T00:22:58.193Z,78.39
2022-10-20T00:25:27.138Z,78.06
2022-10-20T00:27:56.400Z,77.77
2022-10-20T00:30:25.743Z,77.73
2022-10-20T00:32:55.161Z,77.46
2022-10-20T00:35:24.394Z,76.97
2022-10-20T00:37:54.068Z,76.74
2022-10-20T00:40:23.233Z,77.00
2022-10-20T00:42:52.269Z,76.79
2022-10-20T00:45:23.583Z,76.34
2022-10-20T00:48:00.661Z,76.36
2022-10-20T00:50:34.256Z,76.14
2022-10-20T00:53:04.263Z,76.02
2022-10-20T00:55:36.670Z,76.17
2022-10-20T00:58:06.407Z,76.20
2022-10-20T01:00:35.933Z,76.04
2022-10-20T01:03:08.238Z,76.32
2022-10-20T01:05:39.467Z,76.25
2022-10-20T01:08:11.852Z,76.19
2022-10-20T01:11:03.213Z,76.29
2022-10-20T01:13:58.960Z,76.01
2022-10-20T01:16:31.337Z,76.67
2022-10-20T01:19:08.381Z,76.02
2022-10-20T01:22:09.226Z,76.55
2022-10-20T01:25:20.611Z,76.68
2022-10-20T01:28:13.956Z,76.52
2022-10-20T01:30:51.350Z,77.04
2022-10-20T01:33:51.616Z,76.66
2022-10-20T01:36:27.872Z,77.15
2022-10-20T01:39:01.144Z,76.95
2022-10-20T01:41:39.199Z,76.94
2022-10-20T01:44:13.590Z,76.32
2022-10-20T01:46:46.064Z,76.54
2022-10-20T01:49:16.780Z,76.60
2022-10-20T01:51:46.532Z,76.70
2022-10-20T01:54:28.332Z,76.38
2022-10-20T01:57:30.458Z,75.87
2022-10-20T02:00:13.184Z,75.80
2022-10-20T02:03:03.565Z,76.21
2022-10-20T02:06:26.904Z,76.00
2022-10-20T02:09:25.586Z,75.62
2022-10-20T02:12:22.096Z,75.59
2022-10-20T02:14:57.393Z,75.88
2022-10-20T02:17:27.787Z,75.63
2022-10-20T02:19:58.798Z,75.49
2022-10-20T02:22:28.876Z,75.26
2022-10-20T02:24:58.482Z,74.79
2022-10-20T02:27:36.102Z,74.42
2022-10-20T02:30:10.362Z,74.82
2022-10-20T02:32:43.080Z,74.20
2022-10-20T02:35:17.233Z,74.24
2022-10-20T02:37:47.289Z,74.02
2022-10-20T02:40:16.989Z,73.99
2022-10-20T02:42:46.865Z,74.02
2022-10-20T02:45:16.447Z,73.93
2022-10-20T02:47:46.019Z,73.69
2022-10-20T02:50:15.164Z,73.77
2022-10-20T02:52:44.877Z,73.13
2022-10-20T02:55:14.434Z,72.64
2022-10-20T02:57:44.190Z,72.41
2022-10-20T03:00:15.323Z,72.27
2022-10-20T03:02:44.655Z,72.09
2022-10-20T03:05:14.279Z,72.10
2022-10-20T03:10:13.490Z,71.28
2022-10-20T03:12:43.444Z,71.34
2022-10-20T03:15:13.303Z,70.85
2022-10-20T03:17:43.187Z,70.81
2022-10-20T03:20:13.136Z,70.37
2022-10-20T03:22:42.989Z,70.20
2022-10-20T03:25:12.588Z,70.36
2022-10-20T03:27:41.784Z,70.50
2022-10-20T03:30:12.048Z,70.16
2022-10-20T03:32:41.467Z,69.96
2022-10-20T03:35:12.403Z,69.43
2022-10-20T03:37:41.774Z,68.99
2022-10-20T03:40:11.502Z,69.17
2022-10-20T03:42:41.560Z,69.14
2022-10-20T03:45:13.760Z,69.15
2022-10-20T03:47:46.073Z,68.48
2022-10-20T03:50:15.793Z,68.90
2022-10-20T03:52:44.972Z,69.08
2022-10-20T03:55:15.405Z,68.49
2022-10-20T03:57:44.795Z,68.06
2022-10-20T04:00:14.842Z,68.16
2022-10-20T04:02:47.630Z,68.21
2022-10-20T04:05:20.026Z,67.70
2022-10-20T04:07:51.096Z,67.21
2022-10-20T04:10:20.799Z,67.12
2022-10-20T04:12:49.988Z,66.46
2022-10-20T04:15:20.070Z,66.53
2022-10-20T04:17:50.608Z,65.58
2022-10-20T04:20:20.178Z,65.81
2022-10-20T04:22:49.671Z,65.44
2022-10-20T04:25:19.670Z,65.29
2022-10-20T04:27:49.350Z,65.28
2022-10-20T04:30:19.273Z,65.22
2022-10-20T04:32:49.114Z,65.47
2022-10-20T04:35:19.083Z,64.59
2022-10-20T04:37:48.540Z,64.16
2022-10-20T04:40:17.960Z,64.13
2022-10-20T04:42:47.767Z,64.18
2022-10-20T04:45:17.077Z,63.55
2022-10-20T04:47:46.962Z,63.93
2022-10-20T04:50:27.143Z,63.81
2022-10-20T04:53:11.385Z,63.58
2022-10-20T04:55:40.685Z,63.53
2022-10-20T04:58:09.724Z,63.05
2022-10-20T05:00:39.895Z,62.35
2022-10-20T05:03:08.984Z,63.17
2022-10-20T05:05:38.219Z,63.31
2022-10-20T05:08:07.199Z,62.70
2022-10-20T05:10:36.824Z,62.53
2022-10-20T05:13:05.827Z,62.81
2022-10-20T05:15:35.155Z,62.72
2022-10-20T05:18:07.265Z,62.62
2022-10-20T05:20:41.311Z,61.28
2022-10-20T05:23:15.529Z,61.12
2022-10-20T05:25:44.530Z,60.61
2022-10-20T05:28:14.657Z,61.26
2022-10-20T05:30:43.941Z,61.85
2022-10-20T05:33:13.085Z,61.12
2022-10-20T05:35:41.923Z,61.02
2022-10-20T05:38:11.310Z,61.13
2022-10-20T05:40:40.729Z,61.14
2022-10-20T05:43:10.779Z,60.04
2022-10-20T05:45:40.568Z,60.13
2022-10-20T05:48:09.743Z,59.76
2022-10-20T05:50:39.645Z,59.49
2022-10-20T05:53:08.942Z,59.53
2022-10-20T05:55:37.955Z,58.65
2022-10-20T05:58:07.155Z,58.22
2022-10-20T06:00:42.987Z,58.02
2022-10-20T06:03:13.927Z,57.91
2022-10-20T06:05:46.657Z,57.70
2022-10-20T06:08:16.307Z,58.11
2022-10-20T06:10:45.627Z,57.43
2022-10-20T06:13:15.194Z,56.90
2022-10-20T06:15:44.616Z,57.24
2022-10-20T06:18:13.688Z,57.27
2022-10-20T06:20:43.370Z,56.00
2022-10-20T06:23:13.207Z,55.68
2022-10-20T06:25:44.815Z,55.23
2022-10-20T06:28:14.099Z,54.70
2022-10-20T06:30:43.324Z,54.71
2022-10-20T06:33:15.953Z,54.88
2022-10-20T06:35:45.299Z,54.32
2022-10-20T06:38:14.244Z,54.89
2022-10-20T06:40:43.473Z,53.96
2022-10-20T06:43:12.496Z,53.85
2022-10-20T06:45:41.709Z,53.38
2022-10-20T06:48:11.007Z,52.75
2022-10-20T06:50:40.277Z,52.60
2022-10-20T06:53:09.351Z,55.05
2022-10-20T06:55:38.867Z,56.60
2022-10-20T06:58:08.237Z,55.57
2022-10-20T07:00:37.617Z,55.63
2022-10-20T07:03:06.870Z,56.28
2022-10-20T07:05:37.102Z,55.96
2022-10-20T07:08:27.043Z,56.02
2022-10-20T07:11:07.858Z,55.75
2022-10-20T07:13:38.665Z,60.59
2022-10-20T07:16:09.828Z,61.45
2022-10-20T07:18:39.317Z,61.95
2022-10-20T07:21:19.763Z,62.03
2022-10-20T07:23:50.624Z,62.02
2022-10-20T07:26:25.884Z,62.33
2022-10-20T07:28:58.587Z,62.57
2022-10-20T07:31:33.110Z,62.55
2022-10-20T07:36:53.071Z,61.20
2022-10-20T07:39:24.315Z,60.82
2022-10-20T07:41:53.916Z,60.85
2022-10-20T07:44:25.705Z,59.99
2022-10-20T07:46:58.376Z,58.49
2022-10-20T07:49:45.560Z,58.35
2022-10-20T07:52:17.558Z,57.74
2022-10-20T07:54:47.973Z,58.59
2022-10-20T07:57:17.717Z,56.58
2022-10-20T07:59:47.018Z,55.74
2022-10-20T08:02:18.728Z,54.50
2022-10-20T08:04:48.365Z,54.09
2022-10-20T08:07:18.018Z,54.05
2022-10-20T08:09:48.412Z,53.05
2022-10-20T08:12:17.902Z,52.83
2022-10-20T08:15:01.710Z,53.57
2022-10-20T08:17:32.609Z,53.52
2022-10-20T08:20:26.414Z,53.26
2022-10-20T08:23:00.268Z,53.40
2022-10-20T08:25:30.234Z,55.22
2022-10-20T08:27:59.868Z,55.59
2022-10-20T08:30:29.239Z,53.63
2022-10-20T08:32:58.524Z,54.14
2022-10-20T08:35:28.249Z,51.61
2022-10-20T08:37:57.333Z,56.25
2022-10-20T08:40:34.234Z,56.20
2022-10-20T08:43:32.612Z,55.17
2022-10-20T08:46:37.583Z,54.80
2022-10-20T08:49:15.309Z,54.94
2022-10-20T08:51:44.616Z,54.40
2022-10-20T08:54:16.222Z,53.93
2022-10-20T08:56:46.208Z,52.93
2022-10-20T08:59:39.173Z,53.37
2022-10-20T09:02:21.045Z,52.62
2022-10-20T09:05:02.968Z,53.07
2022-10-20T09:07:52.340Z,52.55
2022-10-20T09:10:39.602Z,52.11
2022-10-20T09:16:42.225Z,51.37
2022-10-20T09:22:34.893Z,51.93
2022-10-20T09:25:05.992Z,50.96
2022-10-20T09:30:30.447Z,50.43
2022-10-20T09:33:00.012Z,50.72
2022-10-20T09:35:37.765Z,50.25
2022-10-20T09:38:12.800Z,50.02
2022-10-20T09:40:56.530Z,49.78
2022-10-20T09:43:28.312Z,49.10
2022-10-20T09:46:06.230Z,49.35
2022-10-20T09:48:48.814Z,48.90
2022-10-20T09:51:25.831Z,48.25
2022-10-20T09:54:00.855Z,48.45
2022-10-20T09:56:41.918Z,47.86
2022-10-20T09:59:37.841Z,47.07
2022-10-20T10:02:16.187Z,46.84
2022-10-20T10:04:50.758Z,48.09
2022-10-20T10:07:29.450Z,47.36
2022-10-20T10:10:21.828Z,47.90
2022-10-20T10:13:13.558Z,48.13
2022-10-20T10:15:42.959Z,48.98
2022-10-20T10:18:24.515Z,49.49
2022-10-20T10:21:08.364Z,50.00
2022-10-20T10:26:55.153Z,49.28
2022-10-20T10:29:32.840Z,49.74
2022-10-20T10:32:05.042Z,49.39
2022-10-20T10:34:52.340Z,49.86
2022-10-20T10:39:51.294Z,48.85
2022-10-20T10:42:50.725Z,48.34
2022-10-20T10:45:40.910Z,49.00
2022-10-20T10:48:33.583Z,48.64
2022-10-20T10:51:12.072Z,49.13
2022-10-20T10:53:54.482Z,49.09
2022-10-20T10:56:45.241Z,49.32
2022-10-20T10:59:42.846Z,49.62
2022-10-20T11:02:49.416Z,49.25
2022-10-20T11:05:21.799Z,49.59
2022-10-20T11:08:09.144Z,49.59
2022-10-20T11:10:44.537Z,50.21
2022-10-20T11:13:26.212Z,50.56
2022-10-20T11:16:14.436Z,50.05
2022-10-20T11:19:09.291Z,49.97
2022-10-20T11:21:58.501Z,50.56
2022-10-20T11:24:37.569Z,51.72
2022-10-20T11:27:17.153Z,51.40
2022-10-20T11:30:09.194Z,51.89
2022-10-20T11:33:36.926Z,51.73
2022-10-20T11:36:34.341Z,52.02
2022-10-20T11:39:05.379Z,52.81
2022-10-20T11:41:50.198Z,53.16
2022-10-20T11:44:45.797Z,53.81
2022-10-20T11:47:22.686Z,54.84
2022-10-20T11:49:53.679Z,54.78
2022-10-20T11:53:02.931Z,54.42
2022-10-20T11:55:53.634Z,54.63
2022-10-20T11:58:44.643Z,54.29
2022-10-20T12:01:36.867Z,54.79
2022-10-20T12:04:27.546Z,55.00
2022-10-20T12:07:32.822Z,55.24
2022-10-20T12:10:23.222Z,55.87
2022-10-20T12:13:35.201Z,56.39
2022-10-20T12:16:23.201Z,56.27
2022-10-20T12:19:08.062Z,56.45
2022-10-20T12:22:05.712Z,56.29
2022-10-20T12:24:43.571Z,56.40
2022-10-20T12:27:13.058Z,56.34
2022-10-20T12:29:45.008Z,55.87
2022-10-20T12:32:37.766Z,56.42
2022-10-20T12:35:12.467Z,56.23
2022-10-20T12:37:44.768Z,56.99
2022-10-20T12:40:16.224Z,56.01
2022-10-20T12:42:50.799Z,56.39
2022-10-20T12:45:19.942Z,56.06
2022-10-20T12:48:02.314Z,56.18
2022-10-20T12:50:50.428Z,55.85
2022-10-20T12:53:19.700Z,56.28
2022-10-20T12:56:20.011Z,55.85
2022-10-20T12:59:25.754Z,55.44
2022-10-20T13:02:14.903Z,55.85
2022-10-20T13:05:15.811Z,55.97
2022-10-20T13:07:48.011Z,56.28
2022-10-20T13:10:32.352Z,55.74
2022-10-20T13:13:04.409Z,56.28
2022-10-20T13:15:44.531Z,56.74
2022-10-20T13:18:14.001Z,56.21
2022-10-20T13:21:24.497Z,56.54
2022-10-20T13:24:23.546Z,56.69
2022-10-20T13:26:57.315Z,56.92
2022-10-20T13:29:41.625Z,57.07
2022-10-20T13:32:35.353Z,57.17
2022-10-20T13:35:24.198Z,57.31
2022-10-20T13:38:08.729Z,57.85
2022-10-20T13:40:51.777Z,57.27
2022-10-20T13:43:28.688Z,57.73
2022-10-20T13:46:29.164Z,57.06
2022-10-20T13:49:31.054Z,56.85
2022-10-20T13:52:08.342Z,57.24
2022-10-20T13:54:45.750Z,57.60
2022-10-20T13:57:34.351Z,58.00
2022-10-20T14:00:19.272Z,58.38
2022-10-20T14:03:07.712Z,58.37
2022-10-20T14:05:40.593Z,58.39
2022-10-20T14:08:12.084Z,58.57
2022-10-20T14:10:59.687Z,58.70
2022-10-20T14:13:35.652Z,58.21
2022-10-20T14:16:17.869Z,58.71
2022-10-20T14:19:06.299Z,59.00
2022-10-20T14:21:52.364Z,59.78
2022-10-20T14:24:34.541Z,59.63
2022-10-20T14:27:06.637Z,60.26
2022-10-20T14:29:40.841Z,60.17
2022-10-20T14:32:25.051Z,60.76
2022-10-20T14:35:00.774Z,61.07
2022-10-20T14:37:34.606Z,61.78
2022-10-20T14:40:19.254Z,62.81
2022-10-20T14:42:48.816Z,62.44
2022-10-20T14:45:27.094Z,62.60
2022-10-20T14:47:59.252Z,61.99
2022-10-20T14:50:42.049Z,61.55
2022-10-20T14:53:34.861Z,62.32
2022-10-20T14:56:04.269Z,61.61
2022-10-20T14:58:58.363Z,61.76
2022-10-20T15:01:30.701Z,62.12
2022-10-20T15:04:27.583Z,62.88
2022-10-20T15:07:33.934Z,62.73
2022-10-20T15:10:15.281Z,62.98
2022-10-20T15:12:49.612Z,62.83
2022-10-20T15:15:21.571Z,63.11
2022-10-20T15:18:15.463Z,62.46
2022-10-20T15:20:48.938Z,63.16
2022-10-20T15:23:29.529Z,63.73
2022-10-20T15:26:15.654Z,63.34
2022-10-20T15:28:52.225Z,63.40
2022-10-20T15:31:26.929Z,63.35
2022-10-20T15:33:57.539Z,64.01
2022-10-20T15:36:41.762Z,64.00
2022-10-20T15:39:13.225Z,64.30
2022-10-20T15:41:42.877Z,64.27
2022-10-20T15:44:22.519Z,64.30
2022-10-20T15:46:56.766Z,63.95
2022-10-20T15:49:26.649Z,64.95
2022-10-20T15:51:55.752Z,64.18
2022-10-20T15:54:24.758Z,64.10
2022-10-20T15:56:53.997Z,63.88
2022-10-20T15:59:23.081Z,64.16
2022-10-20T16:01:52.791Z,64.89
2022-10-20T16:04:32.453Z,64.20
2022-10-20T16:07:03.338Z,64.06
2022-10-20T16:09:32.594Z,65.09
2022-10-20T16:12:01.469Z,64.66
2022-10-20T16:14:30.653Z,64.52
2022-10-20T16:17:02.663Z,65.54
2022-10-20T16:19:50.777Z,65.17
2022-10-20T16:22:19.946Z,64.56
2022-10-20T16:24:49.343Z,64.36
2022-10-20T16:27:18.504Z,65.44
2022-10-20T16:29:49.777Z,65.44
2022-10-20T16:32:19.646Z,65.41
2022-10-20T16:34:48.662Z,65.93
2022-10-20T16:37:17.967Z,66.35
2022-10-20T16:39:47.312Z,66.14
2022-10-20T16:42:16.591Z,66.74
2022-10-20T16:44:46.940Z,66.00
2022-10-20T16:47:16.225Z,66.43
2022-10-20T16:49:45.489Z,65.91
2022-10-20T16:52:14.611Z,65.81
2022-10-20T16:54:44.587Z,65.77
2022-10-20T16:57:14.107Z,65.28
2022-10-20T16:59:44.787Z,65.40
2022-10-20T17:02:14.089Z,65.70
2022-10-20T17:04:43.373Z,64.91
2022-10-20T17:07:13.077Z,65.68
2022-10-20T17:09:42.103Z,65.48
2022-10-20T17:12:11.545Z,64.91
2022-10-20T17:14:41.846Z,64.91
2022-10-20T17:17:11.071Z,65.70
2022-10-20T17:19:42.002Z,65.45
2022-10-20T17:24:45.688Z,66.47
2022-10-20T17:27:15.307Z,66.10
2022-10-20T17:29:44.253Z,66.55
2022-10-20T17:32:15.913Z,66.70
2022-10-20T17:34:47.949Z,66.67
2022-10-20T17:37:18.458Z,66.49
2022-10-20T17:39:48.083Z,67.22
2022-10-20T17:42:16.890Z,67.52
2022-10-20T17:44:46.153Z,66.36
2022-10-20T17:47:15.266Z,66.38
2022-10-20T17:49:44.278Z,65.60
2022-10-20T17:52:13.568Z,65.17
2022-10-20T17:54:42.597Z,65.43
2022-10-20T17:57:11.689Z,65.13
2022-10-20T17:59:52.398Z,65.37
2022-10-20T18:02:27.096Z,65.13
2022-10-20T18:04:56.156Z,65.43
2022-10-20T18:07:25.226Z,66.03
2022-10-20T18:09:55.150Z,66.60
2022-10-20T18:12:24.167Z,66.30
2022-10-20T18:14:53.795Z,65.54
2022-10-20T18:17:23.527Z,66.27
2022-10-20T18:19:53.532Z,66.15
2022-10-20T18:22:22.990Z,65.41
2022-10-20T18:24:51.783Z,65.50
2022-10-20T18:27:21.015Z,65.57
2022-10-20T18:29:49.920Z,65.16
2022-10-20T18:32:19.315Z,64.65
2022-10-20T18:34:48.761Z,64.54
2022-10-20T18:37:20.461Z,64.25
2022-10-20T18:39:49.414Z,63.83
2022-10-20T18:42:18.456Z,63.25
2022-10-20T18:44:47.918Z,62.89
2022-10-20T18:47:16.772Z,63.07
2022-10-20T18:49:45.837Z,63.30
2022-10-20T18:52:14.919Z,62.86
2022-10-20T18:54:44.062Z,62.57
2022-10-20T18:57:13.395Z,62.21
2022-10-20T18:59:42.626Z,61.66
2022-10-20T19:02:12.037Z,61.23
2022-10-20T19:04:41.239Z,61.34
2022-10-20T19:07:10.417Z,60.90
2022-10-20T19:09:39.335Z,61.67
2022-10-20T19:12:10.453Z,61.82
2022-10-20T19:14:39.765Z,62.56
2022-10-20T19:17:11.331Z,63.28
2022-10-20T19:19:42.608Z,63.98
2022-10-20T19:22:12.236Z,64.25
2022-10-20T19:24:41.634Z,64.51
2022-10-20T19:27:27.500Z,65.15
2022-10-20T19:29:56.935Z,65.26
2022-10-20T19:32:26.005Z,65.58
2022-10-20T19:34:55.325Z,66.39
2022-10-20T19:37:25.269Z,66.11
2022-10-20T19:39:55.031Z,65.89
2022-10-20T19:42:24.070Z,66.23
2022-10-20T19:44:53.346Z,67.28
2022-10-20T19:47:23.339Z,67.50
2022-10-20T19:49:52.251Z,67.93
2022-10-20T19:52:21.349Z,67.22
2022-10-20T19:54:50.626Z,67.36
2022-10-20T19:57:19.429Z,67.26
2022-10-20T19:59:48.657Z,67.60
2022-10-20T20:02:17.739Z,68.67
2022-10-20T20:04:46.618Z,68.21
2022-10-20T20:09:50.836Z,67.75
2022-10-20T20:12:20.959Z,67.28
2022-10-20T20:14:50.043Z,68.59
2022-10-20T20:17:19.878Z,69.05
2022-10-20T20:19:48.696Z,69.27
2022-10-20T20:22:17.997Z,68.84
2022-10-20T20:24:46.972Z,69.28
2022-10-20T20:27:16.015Z,70.39
2022-10-20T20:29:45.122Z,69.40
2022-10-20T20:32:14.430Z,70.49
2022-10-20T20:34:43.719Z,69.75
2022-10-20T20:37:12.628Z,69.95
2022-10-20T20:39:41.659Z,69.67
2022-10-20T20:42:10.491Z,69.75
2022-10-20T20:44:39.759Z,70.14
2022-10-20T20:47:08.742Z,70.43
2022-10-20T20:49:37.868Z,70.14
2022-10-20T20:52:06.905Z,70.26
2022-10-20T20:54:35.804Z,69.55
2022-10-20T20:57:05.121Z,69.95
2022-10-20T20:59:34.140Z,70.62
2022-10-20T21:02:02.873Z,71.40
2022-10-20T21:04:32.045Z,70.93
2022-10-20T21:07:02.520Z,70.62
2022-10-20T21:09:32.518Z,69.76
2022-10-20T21:12:02.191Z,70.28
2022-10-20T21:14:32.024Z,69.60
2022-10-20T21:17:02.134Z,69.48
2022-10-20T21:19:31.391Z,69.56
2022-10-20T21:22:02.419Z,69.17
2022-10-20T21:24:31.589Z,69.97
2022-10-20T21:27:01.092Z,70.60
2022-10-20T21:29:30.534Z,70.51
2022-10-20T21:31:59.500Z,70.81
2022-10-20T21:34:29.110Z,70.28
2022-10-20T21:36:58.262Z,70.23
2022-10-20T21:39:27.369Z,70.95
2022-10-20T21:41:56.480Z,70.68
2022-10-20T21:44:25.857Z,70.92
2022-10-20T21:46:54.736Z,71.23
2022-10-20T21:49:28.063Z,71.79
2022-10-20T21:51:58.676Z,71.89
2022-10-20T21:54:30.219Z,71.74
2022-10-20T21:56:59.496Z,70.75
2022-10-20T21:59:31.175Z,70.45
2022-10-20T22:02:02.288Z,70.45
2022-10-20T22:04:32.479Z,70.04
2022-10-20T22:07:01.499Z,70.42
2022-10-20T22:09:31.350Z,70.73
2022-10-20T22:12:01.249Z,71.11
2022-10-20T22:14:31.443Z,71.24
2022-10-20T22:17:01.066Z,70.95
2022-10-20T22:19:31.360Z,71.09
2022-10-20T22:22:00.676Z,70.68
2022-10-20T22:24:31.614Z,70.58
2022-10-20T22:27:00.538Z,71.02
2022-10-20T22:29:29.905Z,71.26
2022-10-20T22:31:58.791Z,71.16
2022-10-20T22:34:27.840Z,71.50
2022-10-20T22:36:57.270Z,71.52
2022-10-20T22:39:26.521Z,71.46
2022-10-20T22:41:55.467Z,72.46
2022-10-20T22:44:24.545Z,72.93
2022-10-20T22:46:53.900Z,73.27
2022-10-20T22:49:22.901Z,72.21
2022-10-20T22:51:51.946Z,71.85
2022-10-20T22:54:20.717Z,71.56
2022-10-20T22:56:53.790Z,72.49
2022-10-20T22:59:22.827Z,72.54
2022-10-20T23:01:53.124Z,72.85
2022-10-20T23:04:22.369Z,72.33
2022-10-20T23:06:51.973Z,72.18
2022-10-20T23:09:21.351Z,72.24
2022-10-20T23:11:50.443Z,72.73
2022-10-20T23:14:19.551Z,73.10
2022-10-20T23:16:48.963Z,72.74
2022-10-20T23:19:18.106Z,73.09
2022-10-20T23:21:47.104Z,73.96
2022-10-20T23:24:16.191Z,73.66
2022-10-20T23:26:45.648Z,73.87
2022-10-20T23:29:14.671Z,73.63
2022-10-20T23:31:43.644Z,72.93
2022-10-20T23:34:13.369Z,73.62
2022-10-20T23:36:42.493Z,73.30
2022-10-20T23:39:11.469Z,73.79
2022-10-20T23:41:40.841Z,74.05
2022-10-20T23:44:10.246Z,73.64
2022-10-20T23:46:39.401Z,73.42
2022-10-20T23:49:08.532Z,73.86
2022-10-20T23:51:37.708Z,73.37
2022-10-20T23:54:06.755Z,73.82
2022-10-20T23:56:35.934Z,74.04
2022-10-20T23:59:04.887Z,73.38
